createdAt,value
2018-11-26T00:00:36.210Z,30.37
2018-11-26T00:03:08.666Z,28.35
2018-11-26T00:05:37.952Z,28.73
2018-11-26T00:08:07.584Z,30.27
2018-11-26T00:10:47.385Z,35.13
2018-11-26T00:13:15.814Z,28.40
2018-11-26T00:15:44.098Z,29.10
2018-11-26T00:18:12.477Z,28.75
2018-11-26T00:20:40.755Z,29.90
2018-11-26T00:23:09.566Z,28.40
2018-11-26T00:25:38.021Z,26.40
2018-11-26T00:28:06.885Z,32.13
2018-11-26T00:30:35.221Z,27.93
2018-11-26T00:33:03.592Z,27.30
2018-11-26T00:35:31.889Z,26.85
2018-11-26T00:38:00.215Z,27.30
2018-11-26T00:40:28.645Z,27.15
2018-11-26T00:42:57.119Z,29.65
2018-11-26T00:45:25.582Z,30.70
2018-11-26T00:47:54.027Z,29.12
2018-11-26T00:50:22.351Z,36.05
2018-11-26T00:52:50.772Z,32.78
2018-11-26T00:55:19.049Z,27.77
2018-11-26T00:57:47.470Z,33.80
2018-11-26T01:00:16.028Z,33.02
2018-11-26T01:02:44.450Z,31.23
2018-11-26T01:05:36.181Z,29.15
2018-11-26T01:08:04.435Z,31.77
2018-11-26T01:10:32.848Z,31.57
2018-11-26T01:13:01.427Z,34.40
2018-11-26T01:15:29.852Z,29.15
2018-11-26T01:17:58.148Z,29.25
2018-11-26T01:20:26.483Z,28.17
2018-11-26T01:22:55.055Z,33.38
2018-11-26T01:25:23.327Z,27.60
2018-11-26T01:27:51.763Z,28.07
2018-11-26T01:30:20.185Z,30.62
2018-11-26T01:32:48.881Z,26.50
2018-11-26T01:35:17.178Z,30.88
2018-11-26T01:37:45.603Z,29.60
2018-11-26T01:40:34.405Z,29.25
2018-11-26T01:43:02.789Z,28.62
2018-11-26T01:45:31.296Z,25.60
2018-11-26T01:47:59.603Z,26.85
2018-11-26T01:50:27.975Z,25.52
2018-11-26T01:52:56.285Z,25.52
2018-11-26T01:55:24.607Z,20.43
2018-11-26T01:57:52.903Z,20.60
2018-11-26T02:00:25.448Z,21.27
2018-11-26T02:02:54.393Z,22.67
2018-11-26T02:05:22.826Z,20.97
2018-11-26T02:07:51.411Z,27.93
2018-11-26T02:10:20.582Z,20.80
2018-11-26T02:12:48.934Z,18.05
2018-11-26T02:15:38.972Z,22.65
2018-11-26T02:18:08.212Z,17.52
2018-11-26T02:20:36.649Z,22.02
2018-11-26T02:23:05.098Z,16.97
2018-11-26T02:25:33.407Z,20.65
2018-11-26T02:28:01.732Z,17.70
2018-11-26T02:30:30.240Z,19.92
2018-11-26T02:32:58.587Z,17.98
2018-11-26T02:35:27.047Z,17.90
2018-11-26T02:37:55.439Z,17.57
2018-11-26T02:40:29.909Z,21.57
2018-11-26T02:42:58.291Z,17.20
2018-11-26T02:45:28.083Z,17.62
2018-11-26T02:47:56.619Z,17.20
2018-11-26T02:50:25.004Z,18.10
2018-11-26T02:52:53.384Z,14.65
2018-11-26T02:55:21.853Z,16.35
2018-11-26T02:57:50.440Z,15.70
2018-11-26T03:00:18.906Z,17.20
2018-11-26T03:02:47.210Z,15.90
2018-11-26T03:05:24.686Z,17.90
2018-11-26T03:07:53.246Z,19.90
2018-11-26T03:10:21.647Z,21.97
2018-11-26T03:12:49.959Z,17.55
2018-11-26T03:15:18.317Z,15.70
2018-11-26T03:17:46.723Z,18.37
2018-11-26T03:20:15.044Z,16.05
2018-11-26T03:22:43.577Z,19.20
2018-11-26T03:25:11.888Z,20.40
2018-11-26T03:27:40.186Z,18.00
2018-11-26T03:30:24.487Z,20.92
2018-11-26T03:32:53.035Z,18.85
2018-11-26T03:35:21.315Z,19.95
2018-11-26T03:37:49.655Z,20.43
2018-11-26T03:40:17.994Z,19.55
2018-11-26T03:42:46.272Z,20.02
2018-11-26T03:45:16.813Z,21.45
2018-11-26T03:47:45.225Z,21.05
2018-11-26T03:50:14.210Z,21.85
2018-11-26T03:52:43.446Z,22.70
2018-11-26T03:55:12.202Z,22.02
2018-11-26T03:57:40.612Z,22.13
2018-11-26T04:00:10.679Z,25.70
2018-11-26T04:02:39.110Z,24.32
2018-11-26T04:05:08.517Z,21.97
2018-11-26T04:07:36.921Z,20.48
2018-11-26T04:10:06.809Z,22.55
2018-11-26T04:12:35.109Z,26.05
2018-11-26T04:15:03.451Z,22.20
2018-11-26T04:17:31.909Z,21.45
2018-11-26T04:20:00.321Z,23.60
2018-11-26T04:22:28.796Z,20.88
2018-11-26T04:24:57.185Z,27.40
2018-11-26T04:27:25.806Z,24.18
2018-11-26T04:29:54.100Z,43.48
2018-11-26T04:32:22.421Z,22.40
2018-11-26T04:34:50.821Z,28.07
2018-11-26T04:37:19.438Z,21.85
2018-11-26T04:39:47.746Z,25.95
2018-11-26T04:42:16.000Z,34.60
2018-11-26T04:44:44.477Z,25.32
2018-11-26T04:47:12.787Z,30.12
2018-11-26T04:49:41.174Z,23.52
2018-11-26T04:52:09.452Z,23.47
2018-11-26T04:54:37.818Z,24.57
2018-11-26T04:57:06.334Z,24.70
2018-11-26T04:59:34.704Z,23.22
2018-11-26T05:02:03.081Z,24.45
2018-11-26T05:04:31.585Z,24.75
2018-11-26T05:07:00.094Z,25.23
2018-11-26T05:09:28.399Z,24.43
2018-11-26T05:11:56.711Z,25.70
2018-11-26T05:14:25.153Z,22.40
2018-11-26T05:16:53.542Z,25.68
2018-11-26T05:19:21.852Z,25.80
2018-11-26T05:21:50.183Z,27.98
2018-11-26T05:24:18.595Z,31.12
2018-11-26T05:26:46.983Z,32.25
2018-11-26T05:29:15.311Z,31.33
2018-11-26T05:31:43.751Z,31.82
2018-11-26T05:34:12.171Z,29.52
2018-11-26T05:36:40.499Z,29.90
2018-11-26T05:39:09.318Z,32.98
2018-11-26T05:41:37.730Z,31.82
2018-11-26T05:44:06.369Z,30.17
2018-11-26T05:46:34.665Z,31.73
2018-11-26T05:49:02.963Z,33.38
2018-11-26T05:51:31.391Z,33.18
2018-11-26T05:53:59.744Z,32.45
2018-11-26T05:56:28.216Z,36.00
2018-11-26T05:58:56.506Z,34.27
2018-11-26T06:01:24.985Z,38.00
2018-11-26T06:03:53.860Z,40.10
2018-11-26T06:06:22.211Z,32.93
2018-11-26T06:08:50.555Z,33.50
2018-11-26T06:11:18.876Z,32.03
2018-11-26T06:13:47.178Z,33.02
2018-11-26T06:16:17.327Z,34.45
2018-11-26T06:18:45.703Z,37.25
2018-11-26T06:21:14.050Z,30.90
2018-11-26T06:23:42.464Z,33.05
2018-11-26T06:26:10.758Z,31.27
2018-11-26T06:28:39.230Z,29.95
2018-11-26T06:31:07.583Z,30.97
2018-11-26T06:33:35.923Z,29.95
2018-11-26T06:36:05.182Z,53.80
2018-11-26T06:38:33.673Z,37.25
2018-11-26T06:41:02.032Z,34.03
2018-11-26T06:43:30.440Z,31.82
2018-11-26T06:45:58.709Z,37.98
2018-11-26T06:48:27.131Z,33.08
2018-11-26T06:50:55.541Z,33.88
2018-11-26T06:53:23.970Z,36.23
2018-11-26T06:55:52.260Z,34.60
2018-11-26T06:58:20.697Z,34.48
2018-11-26T07:00:49.507Z,37.28
2018-11-26T07:03:17.866Z,32.50
2018-11-26T07:05:46.152Z,40.45
2018-11-26T07:08:14.742Z,31.55
2018-11-26T07:10:43.090Z,34.83
2018-11-26T07:13:11.572Z,39.30
2018-11-26T07:15:40.223Z,37.60
2018-11-26T07:18:08.615Z,38.45
2018-11-26T07:20:36.993Z,33.88
2018-11-26T07:23:05.422Z,36.38
2018-11-26T07:25:33.771Z,35.55
2018-11-26T07:28:03.284Z,36.58
2018-11-26T07:30:31.760Z,37.75
2018-11-26T07:33:02.389Z,31.37
2018-11-26T07:35:31.595Z,35.90
2018-11-26T07:37:59.901Z,47.20
2018-11-26T07:40:28.211Z,41.05
2018-11-26T07:43:02.206Z,37.03
2018-11-26T07:45:30.807Z,32.03
2018-11-26T07:47:59.149Z,36.90
2018-11-26T07:50:27.408Z,35.73
2018-11-26T07:52:55.731Z,36.05
2018-11-26T07:55:24.114Z,36.63
2018-11-26T07:57:52.585Z,35.05
2018-11-26T08:00:21.852Z,34.58
2018-11-26T08:02:50.510Z,34.63
2018-11-26T08:05:19.798Z,31.37
2018-11-26T08:07:48.160Z,34.40
2018-11-26T08:10:18.864Z,34.55
2018-11-26T08:12:49.138Z,36.15
2018-11-26T08:15:20.496Z,39.20
2018-11-26T08:17:48.847Z,33.85
2018-11-26T08:20:17.341Z,34.53
2018-11-26T08:22:45.814Z,34.95
2018-11-26T08:25:16.701Z,39.00
2018-11-26T08:27:46.088Z,29.92
2018-11-26T08:30:18.361Z,147.78
2018-11-26T08:32:47.946Z,305.70
2018-11-26T08:35:17.170Z,285.77
2018-11-26T08:37:50.796Z,86.35
2018-11-26T08:40:23.218Z,64.87
2018-11-26T08:42:51.552Z,37.83
2018-11-26T08:45:25.198Z,32.17
2018-11-26T08:47:59.763Z,34.15
2018-11-26T08:50:28.031Z,32.63
2018-11-26T08:52:56.490Z,31.40
2018-11-26T08:55:24.868Z,35.63
2018-11-26T08:57:53.309Z,37.10
2018-11-26T09:00:21.611Z,37.58
2018-11-26T09:03:00.230Z,33.28
2018-11-26T09:05:34.076Z,39.27
2018-11-26T09:08:02.472Z,40.12
2018-11-26T09:10:30.747Z,37.13
2018-11-26T09:12:59.119Z,30.68
2018-11-26T09:15:27.519Z,40.75
2018-11-26T09:17:55.925Z,33.28
2018-11-26T09:20:24.222Z,37.63
2018-11-26T09:22:52.603Z,38.30
2018-11-26T09:25:20.906Z,33.53
2018-11-26T09:27:49.226Z,30.55
2018-11-26T09:30:17.590Z,37.50
2018-11-26T09:32:45.933Z,35.35
2018-11-26T09:35:15.709Z,35.70
2018-11-26T09:37:44.087Z,36.38
2018-11-26T09:40:16.605Z,34.70
2018-11-26T09:42:45.178Z,32.75
2018-11-26T09:45:16.689Z,38.78
2018-11-26T09:47:45.421Z,34.20
2018-11-26T09:50:16.055Z,38.85
2018-11-26T09:52:44.379Z,42.58
2018-11-26T09:55:14.576Z,126.62
2018-11-26T09:57:42.853Z,298.05
2018-11-26T10:00:13.565Z,366.48
2018-11-26T10:02:43.273Z,183.22
2018-11-26T10:05:13.135Z,77.50
2018-11-26T10:07:41.516Z,57.13
2018-11-26T10:10:11.247Z,42.43
2018-11-26T10:12:40.189Z,51.23
2018-11-26T10:15:17.980Z,52.00
2018-11-26T10:17:46.305Z,51.40
2018-11-26T10:20:14.683Z,48.68
2018-11-26T10:22:43.945Z,42.10
2018-11-26T10:25:14.240Z,43.05
2018-11-26T10:27:42.582Z,41.88
2018-11-26T10:30:13.067Z,46.50
2018-11-26T10:32:41.780Z,38.30
2018-11-26T10:35:13.224Z,38.35
2018-11-26T10:37:41.895Z,38.95
2018-11-26T10:40:11.439Z,44.77
2018-11-26T10:42:39.849Z,36.48
2018-11-26T10:45:10.095Z,39.03
2018-11-26T10:47:38.426Z,43.80
2018-11-26T10:50:09.648Z,43.00
2018-11-26T10:52:37.987Z,39.13
2018-11-26T10:55:08.992Z,38.15
2018-11-26T10:57:37.291Z,34.92
2018-11-26T11:00:07.311Z,37.03
2018-11-26T11:02:40.940Z,33.63
2018-11-26T11:05:09.339Z,35.15
2018-11-26T11:07:37.726Z,36.83
2018-11-26T11:10:09.886Z,29.35
2018-11-26T11:12:38.327Z,33.73
2018-11-26T11:15:08.718Z,30.90
2018-11-26T11:17:37.255Z,33.58
2018-11-26T11:20:11.476Z,25.57
2018-11-26T11:22:39.798Z,31.48
2018-11-26T11:25:08.962Z,33.80
2018-11-26T11:27:37.261Z,35.48
2018-11-26T11:30:18.524Z,34.27
2018-11-26T11:32:46.944Z,36.05
2018-11-26T11:35:15.837Z,36.33
2018-11-26T11:37:45.338Z,36.40
2018-11-26T11:40:21.852Z,36.42
2018-11-26T11:42:50.282Z,35.10
2018-11-26T11:45:19.091Z,36.83
2018-11-26T11:47:47.565Z,37.58
2018-11-26T11:50:17.761Z,38.05
2018-11-26T11:52:46.527Z,43.98
2018-11-26T11:55:18.931Z,48.25
2018-11-26T11:57:47.542Z,40.20
2018-11-26T12:00:25.296Z,44.90
2018-11-26T12:02:53.693Z,40.05
2018-11-26T12:05:22.098Z,42.62
2018-11-26T12:07:50.462Z,40.55
2018-11-26T12:10:18.987Z,45.90
2018-11-26T12:12:47.314Z,42.90
2018-11-26T12:15:16.745Z,42.30
2018-11-26T12:17:45.929Z,46.63
2018-11-26T12:20:14.905Z,44.18
2018-11-26T12:22:43.594Z,49.63
2018-11-26T12:25:13.980Z,51.25
2018-11-26T12:27:42.500Z,44.13
2018-11-26T12:30:15.498Z,42.13
2018-11-26T12:32:44.019Z,39.55
2018-11-26T12:35:12.795Z,39.80
2018-11-26T12:37:41.193Z,43.30
2018-11-26T12:40:10.959Z,41.55
2018-11-26T12:42:39.462Z,43.35
2018-11-26T12:45:11.710Z,40.33
2018-11-26T12:47:39.989Z,46.18
2018-11-26T12:50:08.360Z,42.98
2018-11-26T12:52:37.130Z,44.45
2018-11-26T12:55:06.163Z,47.90
2018-11-26T12:57:34.791Z,36.13
2018-11-26T13:00:06.227Z,41.20
2018-11-26T13:02:34.551Z,43.58
2018-11-26T13:05:02.931Z,44.65
2018-11-26T13:07:31.378Z,46.08
2018-11-26T13:09:59.865Z,42.78
2018-11-26T13:12:28.294Z,42.15
2018-11-26T13:14:56.988Z,50.28
2018-11-26T13:17:25.284Z,58.78
2018-11-26T13:19:54.656Z,115.95
2018-11-26T13:22:23.001Z,62.78
2018-11-26T13:24:51.347Z,58.87
2018-11-26T13:27:19.836Z,105.70
2018-11-26T13:29:48.155Z,73.00
2018-11-26T13:32:17.095Z,81.80
2018-11-26T13:34:45.545Z,56.90
2018-11-26T13:37:14.082Z,42.50
2018-11-26T13:39:42.621Z,65.47
2018-11-26T13:42:11.062Z,83.35
2018-11-26T13:44:39.763Z,50.90
2018-11-26T13:47:08.366Z,39.48
2018-11-26T13:49:36.832Z,44.03
2018-11-26T13:52:05.232Z,51.50
2018-11-26T13:54:33.487Z,48.60
2018-11-26T13:57:01.830Z,34.27
2018-11-26T13:59:30.159Z,37.75
2018-11-26T14:01:58.600Z,38.15
2018-11-26T14:04:26.942Z,33.53
2018-11-26T14:06:55.272Z,37.70
2018-11-26T14:09:23.607Z,32.53
2018-11-26T14:11:52.072Z,41.92
2018-11-26T14:14:20.331Z,40.03
2018-11-26T14:16:48.630Z,34.60
2018-11-26T14:19:16.970Z,34.95
2018-11-26T14:21:46.328Z,35.00
2018-11-26T14:24:15.034Z,34.75
2018-11-26T14:26:43.126Z,40.05
2018-11-26T14:29:11.525Z,37.05
2018-11-26T14:31:40.099Z,36.23
2018-11-26T14:34:08.544Z,44.77
2018-11-26T14:36:36.951Z,37.10
2018-11-26T14:39:07.343Z,36.68
2018-11-26T14:41:35.852Z,35.95
2018-11-26T14:44:04.491Z,43.95
2018-11-26T14:46:32.633Z,45.43
2018-11-26T14:49:00.991Z,56.15
2018-11-26T14:51:29.543Z,38.23
2018-11-26T14:53:57.846Z,31.77
2018-11-26T14:56:26.457Z,32.00
2018-11-26T14:58:54.833Z,29.63
2018-11-26T15:01:23.216Z,30.82
2018-11-26T15:03:51.529Z,34.70
2018-11-26T15:06:20.019Z,27.27
2018-11-26T15:08:48.413Z,28.42
2018-11-26T15:11:16.923Z,32.73
2018-11-26T15:13:45.243Z,33.85
2018-11-26T15:16:13.583Z,31.60
2018-11-26T15:18:42.190Z,39.38
2018-11-26T15:21:10.499Z,38.88
2018-11-26T15:23:38.869Z,33.63
2018-11-26T15:26:08.662Z,33.55
2018-11-26T15:28:37.004Z,37.42
2018-11-26T15:31:05.358Z,31.50
2018-11-26T15:33:33.910Z,34.50
2018-11-26T15:36:02.243Z,35.08
2018-11-26T15:38:30.630Z,34.70
2018-11-26T15:40:58.906Z,32.98
2018-11-26T15:43:27.396Z,37.28
2018-11-26T15:45:55.772Z,32.78
2018-11-26T15:48:24.214Z,37.00
2018-11-26T15:50:52.700Z,34.50
2018-11-26T15:53:21.000Z,31.68
2018-11-26T15:55:49.439Z,36.05
2018-11-26T15:58:23.492Z,42.53
2018-11-26T16:00:46.544Z,39.05
2018-11-26T16:03:15.018Z,34.15
2018-11-26T16:05:43.498Z,37.53
2018-11-26T16:08:14.170Z,35.38
2018-11-26T16:10:42.613Z,47.25
2018-11-26T16:13:12.989Z,52.00
2018-11-26T16:15:43.776Z,64.92
2018-11-26T16:18:14.090Z,62.90
2018-11-26T16:20:42.611Z,56.25
2018-11-26T16:23:11.536Z,75.55
2018-11-26T16:25:41.590Z,76.70
2018-11-26T16:28:11.281Z,61.90
2018-11-26T16:30:39.862Z,76.30
2018-11-26T16:33:09.159Z,65.17
2018-11-26T16:35:37.553Z,64.92
2018-11-26T16:38:06.576Z,63.35
2018-11-26T16:40:34.970Z,54.73
2018-11-26T16:43:03.312Z,58.05
2018-11-26T16:45:32.173Z,47.98
2018-11-26T16:48:00.618Z,49.98
2018-11-26T16:50:30.518Z,45.48
2018-11-26T16:52:58.968Z,44.20
2018-11-26T16:55:27.320Z,43.00
2018-11-26T16:57:55.724Z,58.48
2018-11-26T17:00:26.117Z,46.65
2018-11-26T17:02:56.821Z,68.37
2018-11-26T17:05:26.654Z,47.50
2018-11-26T17:07:54.975Z,36.33
2018-11-26T17:10:23.294Z,70.45
2018-11-26T17:12:51.835Z,68.25
2018-11-26T17:15:20.149Z,46.85
2018-11-26T17:17:48.626Z,35.55
2018-11-26T17:20:17.590Z,29.95
2018-11-26T17:22:45.964Z,32.20
2018-11-26T17:25:16.457Z,28.05
2018-11-26T17:27:45.431Z,31.25
2018-11-26T17:30:19.020Z,26.90
2018-11-26T17:32:48.697Z,29.85
2018-11-26T17:35:18.106Z,29.63
2018-11-26T17:37:46.404Z,25.72
2018-11-26T17:40:16.806Z,23.62
2018-11-26T17:42:45.145Z,26.97
2018-11-26T17:45:14.351Z,23.12
2018-11-26T17:47:45.202Z,23.57
2018-11-26T17:50:15.421Z,26.15
2018-11-26T17:52:44.047Z,30.27
2018-11-26T17:55:12.578Z,36.53
2018-11-26T17:57:40.995Z,29.02
2018-11-26T18:00:18.198Z,26.60
2018-11-26T18:02:46.759Z,24.80
2018-11-26T18:05:17.369Z,23.98
2018-11-26T18:07:48.211Z,29.87
2018-11-26T18:10:16.554Z,24.98
2018-11-26T18:12:44.913Z,25.68
2018-11-26T18:15:14.095Z,23.87
2018-11-26T18:17:43.302Z,27.02
2018-11-26T18:20:19.549Z,24.23
2018-11-26T18:22:49.385Z,27.00
2018-11-26T18:25:19.042Z,26.68
2018-11-26T18:27:54.432Z,24.72
2018-11-26T18:30:25.836Z,30.23
2018-11-26T18:32:54.457Z,28.75
2018-11-26T18:35:23.843Z,29.32
2018-11-26T18:37:52.226Z,25.40
2018-11-26T18:40:20.696Z,31.95
2018-11-26T18:42:49.301Z,28.92
2018-11-26T18:45:18.518Z,29.90
2018-11-26T18:47:47.630Z,29.15
2018-11-26T18:50:19.279Z,32.50
2018-11-26T18:52:48.657Z,31.35
2018-11-26T18:55:17.328Z,33.63
2018-11-26T18:57:45.839Z,38.35
2018-11-26T19:00:21.554Z,41.90
2018-11-26T19:02:50.531Z,45.38
2018-11-26T19:05:19.784Z,36.68
2018-11-26T19:07:48.137Z,34.95
2018-11-26T19:10:20.567Z,32.58
2018-11-26T19:12:52.666Z,34.90
2018-11-26T19:15:23.325Z,37.90
2018-11-26T19:17:52.902Z,32.00
2018-11-26T19:20:21.299Z,30.68
2018-11-26T19:22:49.680Z,37.88
2018-11-26T19:25:19.035Z,38.63
2018-11-26T19:27:48.785Z,37.67
2018-11-26T19:30:17.210Z,41.33
2018-11-26T19:32:46.406Z,36.10
2018-11-26T19:35:15.788Z,36.63
2018-11-26T19:37:44.524Z,32.70
2018-11-26T19:40:15.186Z,36.10
2018-11-26T19:42:45.304Z,37.55
2018-11-26T19:45:17.972Z,34.67
2018-11-26T19:47:46.526Z,42.25
2018-11-26T19:50:16.331Z,34.18
2018-11-26T19:52:45.326Z,36.00
2018-11-26T19:55:18.083Z,37.40
2018-11-26T19:57:46.867Z,34.13
2018-11-26T20:00:18.287Z,36.33
2018-11-26T20:02:48.601Z,37.05
2018-11-26T20:05:26.289Z,36.10
2018-11-26T20:07:54.692Z,37.85
2018-11-26T20:10:22.990Z,35.05
2018-11-26T20:12:51.485Z,39.90
2018-11-26T20:15:19.941Z,33.53
2018-11-26T20:17:48.351Z,37.93
2018-11-26T20:20:16.884Z,40.98
2018-11-26T20:22:45.206Z,39.63
2018-11-26T20:25:14.459Z,40.70
2018-11-26T20:27:43.606Z,54.25
2018-11-26T20:30:13.269Z,37.98
2018-11-26T20:32:42.988Z,41.18
2018-11-26T20:35:12.268Z,34.90
2018-11-26T20:37:40.663Z,36.88
2018-11-26T20:40:11.723Z,36.75
2018-11-26T20:42:41.901Z,35.30
2018-11-26T20:45:12.110Z,39.15
2018-11-26T20:47:40.458Z,40.55
2018-11-26T20:50:14.692Z,38.00
2018-11-26T20:52:43.104Z,38.78
2018-11-26T20:55:13.926Z,41.23
2018-11-26T20:57:42.314Z,42.67
2018-11-26T21:00:14.119Z,42.05
2018-11-26T21:02:42.703Z,39.45
2018-11-26T21:05:11.175Z,34.10
2018-11-26T21:07:39.603Z,41.90
2018-11-26T21:10:11.134Z,37.73
2018-11-26T21:12:39.489Z,39.73
2018-11-26T21:15:12.290Z,34.13
2018-11-26T21:17:40.736Z,41.28
2018-11-26T21:20:42.941Z,42.80
2018-11-26T21:23:15.284Z,38.23
2018-11-26T21:25:43.668Z,46.95
2018-11-26T21:28:12.674Z,39.03
2018-11-26T21:30:41.140Z,44.75
2018-11-26T21:33:09.620Z,39.10
2018-11-26T21:35:37.962Z,39.27
2018-11-26T21:38:07.798Z,41.35
2018-11-26T21:40:36.077Z,39.98
2018-11-26T21:43:05.078Z,44.80
2018-11-26T21:45:37.782Z,41.30
2018-11-26T21:48:06.323Z,35.50
2018-11-26T21:50:34.991Z,39.92
2018-11-26T21:53:03.480Z,48.35
2018-11-26T21:55:31.951Z,43.40
2018-11-26T21:58:00.420Z,43.95
2018-11-26T22:00:30.062Z,45.40
2018-11-26T22:03:02.878Z,43.45
2018-11-26T22:05:31.568Z,45.43
2018-11-26T22:08:00.149Z,45.40
2018-11-26T22:10:28.643Z,42.80
2018-11-26T22:13:01.238Z,45.30
2018-11-26T22:15:43.898Z,48.60
2018-11-26T22:18:17.927Z,50.48
2018-11-26T22:21:17.974Z,49.98
2018-11-26T22:23:56.509Z,46.53
